Voorheesville, NY

5:03 PM EDT on September 25, 2016 (GMT -0400)
| | Change Station
Active Advisory: Frost Advisory

Elev -9999 ft 0.00 °N, 0.00 °E | Updated

Clear
Clear
58 °F
Feels Like 58 °F
N
7
Wind Variable Wind from WNW
Gusts 12 mph

Today
High -- | Low -- °F
--% Chance of Precip.
Yesterday
High -- | Low -- °F
Precip. -- in
Pressure 30.13 in
Visibility 10.0 miles
Clouds Few 5500 ft
Few 25000 ft
Dew Point 37 °F
Humidity 46%
Rainfall --
Snow Depth Not available.
6:46 AM 6:46 PM
Waning Crescent, 25% visible
METAR KALB 252051Z 32008KT 10SM FEW055 FEW250 19/01 A3013 RMK AO2 SLP203 T01890011 56016
Pressure 30.13 in
Visibility 10.0 miles
Clouds Few 5500 ft
Few 25000 ft
Dew Point 37 °F
Humidity 46%
Rainfall --
Snow Depth Not available.
6:46 AM 6:46 PM
Waning Crescent, 25% visible
METAR KALB 252051Z 32008KT 10SM FEW055 FEW250 19/01 A3013 RMK AO2 SLP203 T01890011 56016

10-Day Weather Forecast

Almanac

Astronomy

Sep. 25, 2016 Rise Set
Actual Time
Civil Twilight
Nautical Twilight
Astronomical Twilight
Moon
Length of Visible Light
Length of Day
Tomorrow will be .
, % of the Moon is Illuminated

Today's Extremes

State Highs State Lows

Community

WunderPhotos

Upload Photos

1,941,731 photos uploaded!

WunderBlog® & News

Nearby

Air Quality

  Air Quality AQ Index Pollutant
Not available.

Snow Depth

Station Depth Elevation

Earthquake Activity

City Distance Mag. Time & Date
Minimum magnitude displayed is 2.5.

Coastal Water Temperatures

Place Temperature

Stations

Nearby Weather Stations

Station Location Temp. Windchill Dew Point Humidity Wind Precip. Elev Updated Type
                   

Watches & Warnings

Frost Advisory
Issued: 3:14 PM EDT Sep. 25, 2016 – National Weather Service

... Frost advisory remains in effect from 2 am to 8 am EDT
Monday...

* locations... Mohawk Valley... Saratoga region... capital region...
   Taconics... Mid Hudson valley... eastern Catskills... northwest
Connecticut... Berkshires and all of southern Vermont.

* Temperatures... in the middle 30s.

* Impacts... potential frost damage to sensitive plants and crops.

Precautionary/preparedness actions...

A frost advisory means that widespread frost is expected.
Sensitive outdoor plants may be killed if left uncovered.